sensor_id;sensor_type;location;lat;lon;timestamp;pressure;altitude;pressure_sealevel;temperature;humidity
75013;BME280;63567;49.956;20.130;2022-11-20T00:02:18;96778.28;;;-3.27;77.60
75013;BME280;63567;49.956;20.130;2022-11-20T00:04:43;96777.00;;;-3.21;76.90
75013;BME280;63567;49.956;20.130;2022-11-20T00:07:08;96781.97;;;-3.18;76.66
75013;BME280;63567;49.956;20.130;2022-11-20T00:09:34;96779.66;;;-3.10;76.25
75013;BME280;63567;49.956;20.130;2022-11-20T00:11:59;96778.09;;;-3.13;76.09
75013;BME280;63567;49.956;20.130;2022-11-20T00:14:24;96777.53;;;-3.16;75.97
75013;BME280;63567;49.956;20.130;2022-11-20T00:16:49;96780.69;;;-3.13;76.18
75013;BME280;63567;49.956;20.130;2022-11-20T00:19:15;96778.00;;;-3.11;76.55
75013;BME280;63567;49.956;20.130;2022-11-20T00:21:40;96781.91;;;-3.05;76.44
75013;BME280;63567;49.956;20.130;2022-11-20T00:24:07;96786.94;;;-3.04;76.23
75013;BME280;63567;49.956;20.130;2022-11-20T00:26:33;96783.34;;;-3.01;76.21
75013;BME280;63567;49.956;20.130;2022-11-20T00:29:00;96779.00;;;-3.01;75.97
75013;BME280;63567;49.956;20.130;2022-11-20T00:31:26;96770.56;;;-3.03;76.46
75013;BME280;63567;49.956;20.130;2022-11-20T00:33:52;96762.88;;;-2.92;76.57
75013;BME280;63567;49.956;20.130;2022-11-20T00:36:23;96765.97;;;-2.75;75.96
75013;BME280;63567;49.956;20.130;2022-11-20T00:38:57;96767.06;;;-2.66;75.57
75013;BME280;63567;49.956;20.130;2022-11-20T00:41:23;96771.16;;;-2.64;75.32
75013;BME280;63567;49.956;20.130;2022-11-20T00:43:51;96769.16;;;-2.60;75.05
75013;BME280;63567;49.956;20.130;2022-11-20T00:46:18;96772.69;;;-2.61;74.56
75013;BME280;63567;49.956;20.130;2022-11-20T00:48:44;96776.31;;;-2.64;74.85
75013;BME280;63567;49.956;20.130;2022-11-20T00:51:12;96771.88;;;-2.62;74.86
75013;BME280;63567;49.956;20.130;2022-11-20T00:53:38;96772.69;;;-2.61;75.08
75013;BME280;63567;49.956;20.130;2022-11-20T00:56:06;96774.22;;;-2.59;74.76
75013;BME280;63567;49.956;20.130;2022-11-20T00:58:37;96765.78;;;-2.61;74.77
75013;BME280;63567;49.956;20.130;2022-11-20T01:01:08;96767.94;;;-2.79;74.93
75013;BME280;63567;49.956;20.130;2022-11-20T01:03:39;96774.38;;;-2.84;75.10
75013;BME280;63567;49.956;20.130;2022-11-20T01:06:31;96760.59;;;-2.72;74.82
75013;BME280;63567;49.956;20.130;2022-11-20T01:08:59;96756.59;;;-2.76;74.73
75013;BME280;63567;49.956;20.130;2022-11-20T01:11:27;96761.13;;;-2.80;74.75
75013;BME280;63567;49.956;20.130;2022-11-20T01:13:54;96757.38;;;-2.87;74.93
75013;BME280;63567;49.956;20.130;2022-11-20T01:16:21;96764.84;;;-2.95;76.01
75013;BME280;63567;49.956;20.130;2022-11-20T01:18:49;96769.22;;;-2.84;75.37
75013;BME280;63567;49.956;20.130;2022-11-20T01:21:16;96765.53;;;-2.93;75.40
75013;BME280;63567;49.956;20.130;2022-11-20T01:23:43;96758.53;;;-2.91;75.74
75013;BME280;63567;49.956;20.130;2022-11-20T01:26:12;96756.53;;;-2.99;76.38
75013;BME280;63567;49.956;20.130;2022-11-20T01:28:38;96751.81;;;-3.05;76.50
75013;BME280;63567;49.956;20.130;2022-11-20T01:31:16;96748.56;;;-3.20;77.63
75013;BME280;63567;49.956;20.130;2022-11-20T01:33:43;96738.50;;;-3.23;77.10
75013;BME280;63567;49.956;20.130;2022-11-20T01:36:10;96733.13;;;-3.20;77.42
75013;BME280;63567;49.956;20.130;2022-11-20T01:38:36;96737.47;;;-3.20;77.49
75013;BME280;63567;49.956;20.130;2022-11-20T01:41:01;96733.66;;;-3.27;77.75
75013;BME280;63567;49.956;20.130;2022-11-20T01:43:27;96737.22;;;-3.41;78.10
75013;BME280;63567;49.956;20.130;2022-11-20T01:48:28;96732.09;;;-3.41;77.49
75013;BME280;63567;49.956;20.130;2022-11-20T01:50:55;96731.47;;;-3.45;77.73
75013;BME280;63567;49.956;20.130;2022-11-20T01:53:25;96739.56;;;-3.62;78.11
75013;BME280;63567;49.956;20.130;2022-11-20T01:55:55;96736.16;;;-3.63;78.19
75013;BME280;63567;49.956;20.130;2022-11-20T01:58:28;96744.00;;;-3.64;78.40
75013;BME280;63567;49.956;20.130;2022-11-20T02:00:55;96747.50;;;-3.65;78.31
75013;BME280;63567;49.956;20.130;2022-11-20T02:03:21;96744.00;;;-3.64;77.95
75013;BME280;63567;49.956;20.130;2022-11-20T02:05:50;96747.94;;;-3.72;78.11
75013;BME280;63567;49.956;20.130;2022-11-20T02:08:17;96737.88;;;-3.75;78.51
75013;BME280;63567;49.956;20.130;2022-11-20T02:10:42;96736.69;;;-3.95;78.73
75013;BME280;63567;49.956;20.130;2022-11-20T02:13:08;96745.94;;;-3.92;79.30
75013;BME280;63567;49.956;20.130;2022-11-20T02:15:52;96740.25;;;-3.84;78.88
75013;BME280;63567;49.956;20.130;2022-11-20T02:18:19;96741.97;;;-3.72;78.47
75013;BME280;63567;49.956;20.130;2022-11-20T02:20:48;96741.53;;;-3.66;77.77
75013;BME280;63567;49.956;20.130;2022-11-20T02:25:49;96742.03;;;-3.61;77.49
75013;BME280;63567;49.956;20.130;2022-11-20T02:28:16;96749.56;;;-3.58;77.67
75013;BME280;63567;49.956;20.130;2022-11-20T02:30:42;96748.09;;;-3.49;77.71
75013;BME280;63567;49.956;20.130;2022-11-20T02:33:08;96751.44;;;-3.36;77.53
75013;BME280;63567;49.956;20.130;2022-11-20T02:38:01;96756.53;;;-3.23;76.17
75013;BME280;63567;49.956;20.130;2022-11-20T02:40:27;96744.81;;;-3.27;76.31
75013;BME280;63567;49.956;20.130;2022-11-20T02:42:53;96741.94;;;-3.35;75.86
75013;BME280;63567;49.956;20.130;2022-11-20T02:45:18;96744.91;;;-3.53;76.32
75013;BME280;63567;49.956;20.130;2022-11-20T02:47:44;96737.06;;;-3.51;76.63
75013;BME280;63567;49.956;20.130;2022-11-20T02:50:09;96745.38;;;-3.47;76.17
75013;BME280;63567;49.956;20.130;2022-11-20T02:52:35;96744.66;;;-3.49;75.30
75013;BME280;63567;49.956;20.130;2022-11-20T02:55:00;96746.31;;;-3.48;75.58
75013;BME280;63567;49.956;20.130;2022-11-20T02:57:26;96747.66;;;-3.56;75.57
75013;BME280;63567;49.956;20.130;2022-11-20T02:59:51;96747.81;;;-3.57;75.32
75013;BME280;63567;49.956;20.130;2022-11-20T03:02:16;96752.88;;;-3.68;75.02
75013;BME280;63567;49.956;20.130;2022-11-20T03:04:41;96743.59;;;-3.71;75.56
75013;BME280;63567;49.956;20.130;2022-11-20T03:07:07;96738.44;;;-3.71;75.33
75013;BME280;63567;49.956;20.130;2022-11-20T03:09:33;96741.78;;;-3.82;75.59
75013;BME280;63567;49.956;20.130;2022-11-20T03:11:58;96744.25;;;-3.80;74.85
75013;BME280;63567;49.956;20.130;2022-11-20T03:14:23;96742.00;;;-3.85;75.17
75013;BME280;63567;49.956;20.130;2022-11-20T03:16:49;96735.31;;;-3.87;74.70
75013;BME280;63567;49.956;20.130;2022-11-20T03:19:14;96732.94;;;-3.90;74.92
75013;BME280;63567;49.956;20.130;2022-11-20T03:21:39;96734.09;;;-3.95;75.39
75013;BME280;63567;49.956;20.130;2022-11-20T03:24:05;96730.69;;;-4.08;75.74
75013;BME280;63567;49.956;20.130;2022-11-20T03:26:30;96733.81;;;-4.03;75.69
75013;BME280;63567;49.956;20.130;2022-11-20T03:29:00;96732.75;;;-4.00;75.44
75013;BME280;63567;49.956;20.130;2022-11-20T03:31:28;96725.28;;;-4.03;75.32
75013;BME280;63567;49.956;20.130;2022-11-20T03:33:56;96723.59;;;-4.04;75.49
75013;BME280;63567;49.956;20.130;2022-11-20T03:36:21;96728.84;;;-4.06;75.49
75013;BME280;63567;49.956;20.130;2022-11-20T03:38:48;96726.28;;;-4.06;75.57
75013;BME280;63567;49.956;20.130;2022-11-20T03:41:19;96723.00;;;-4.08;75.51
75013;BME280;63567;49.956;20.130;2022-11-20T03:43:59;96725.38;;;-4.05;75.60
75013;BME280;63567;49.956;20.130;2022-11-20T03:46:25;96727.72;;;-4.15;75.73
75013;BME280;63567;49.956;20.130;2022-11-20T03:48:50;96725.16;;;-4.15;75.76
75013;BME280;63567;49.956;20.130;2022-11-20T03:51:18;96720.88;;;-4.14;75.40
75013;BME280;63567;49.956;20.130;2022-11-20T03:53:45;96716.63;;;-4.15;75.96
75013;BME280;63567;49.956;20.130;2022-11-20T03:56:12;96723.63;;;-4.17;75.37
75013;BME280;63567;49.956;20.130;2022-11-20T03:58:40;96710.78;;;-4.17;75.19
75013;BME280;63567;49.956;20.130;2022-11-20T04:01:12;96715.19;;;-4.19;75.19
75013;BME280;63567;49.956;20.130;2022-11-20T04:03:39;96722.41;;;-4.24;75.67
75013;BME280;63567;49.956;20.130;2022-11-20T04:06:10;96717.38;;;-4.26;75.65
75013;BME280;63567;49.956;20.130;2022-11-20T04:08:35;96713.97;;;-4.26;75.29
75013;BME280;63567;49.956;20.130;2022-11-20T04:11:11;96707.56;;;-4.21;76.10
75013;BME280;63567;49.956;20.130;2022-11-20T04:13:37;96707.28;;;-4.29;76.21
75013;BME280;63567;49.956;20.130;2022-11-20T04:16:03;96703.69;;;-4.26;75.86
75013;BME280;63567;49.956;20.130;2022-11-20T04:18:29;96708.75;;;-4.25;76.29
75013;BME280;63567;49.956;20.130;2022-11-20T04:20:56;96710.28;;;-4.22;75.87
75013;BME280;63567;49.956;20.130;2022-11-20T04:23:21;96711.19;;;-4.23;75.86
75013;BME280;63567;49.956;20.130;2022-11-20T04:25:47;96704.19;;;-4.21;75.96
75013;BME280;63567;49.956;20.130;2022-11-20T04:28:12;96704.00;;;-4.18;76.04
75013;BME280;63567;49.956;20.130;2022-11-20T04:30:37;96707.28;;;-4.16;76.47
75013;BME280;63567;49.956;20.130;2022-11-20T04:33:02;96706.34;;;-4.15;75.83
75013;BME280;63567;49.956;20.130;2022-11-20T04:35:28;96710.66;;;-4.16;76.13
75013;BME280;63567;49.956;20.130;2022-11-20T04:37:53;96710.56;;;-4.14;76.00
75013;BME280;63567;49.956;20.130;2022-11-20T04:40:18;96709.53;;;-4.11;75.92
75013;BME280;63567;49.956;20.130;2022-11-20T04:42:43;96707.69;;;-4.09;75.92
75013;BME280;63567;49.956;20.130;2022-11-20T04:45:09;96709.31;;;-4.08;76.29
75013;BME280;63567;49.956;20.130;2022-11-20T04:47:34;96712.69;;;-4.08;75.92
75013;BME280;63567;49.956;20.130;2022-11-20T04:49:59;96705.13;;;-4.09;76.19
75013;BME280;63567;49.956;20.130;2022-11-20T04:52:25;96695.84;;;-4.12;75.79
75013;BME280;63567;49.956;20.130;2022-11-20T04:54:50;96698.41;;;-4.12;76.57
75013;BME280;63567;49.956;20.130;2022-11-20T04:57:18;96709.53;;;-4.11;75.86
75013;BME280;63567;49.956;20.130;2022-11-20T04:59:43;96698.41;;;-4.12;76.48
75013;BME280;63567;49.956;20.130;2022-11-20T05:02:09;96709.22;;;-4.20;76.33
75013;BME280;63567;49.956;20.130;2022-11-20T05:04:34;96699.47;;;-4.27;76.65
75013;BME280;63567;49.956;20.130;2022-11-20T05:07:00;96695.59;;;-4.46;77.48
75013;BME280;63567;49.956;20.130;2022-11-20T05:09:25;96704.84;;;-4.56;78.59
75013;BME280;63567;49.956;20.130;2022-11-20T05:11:50;96698.06;;;-4.57;79.25
75013;BME280;63567;49.956;20.130;2022-11-20T05:14:16;96702.66;;;-4.62;80.05
75013;BME280;63567;49.956;20.130;2022-11-20T05:16:41;96694.88;;;-4.61;79.58
75013;BME280;63567;49.956;20.130;2022-11-20T05:19:06;96695.69;;;-4.60;80.79
75013;BME280;63567;49.956;20.130;2022-11-20T05:21:32;96697.94;;;-4.56;81.04
75013;BME280;63567;49.956;20.130;2022-11-20T05:23:57;96693.81;;;-4.45;80.56
75013;BME280;63567;49.956;20.130;2022-11-20T05:26:23;96684.38;;;-4.45;80.59
75013;BME280;63567;49.956;20.130;2022-11-20T05:28:49;96686.03;;;-4.44;80.94
75013;BME280;63567;49.956;20.130;2022-11-20T05:31:17;96683.84;;;-4.37;81.76
75013;BME280;63567;49.956;20.130;2022-11-20T05:33:43;96683.22;;;-4.28;81.39
75013;BME280;63567;49.956;20.130;2022-11-20T05:36:10;96684.72;;;-4.13;81.72
75013;BME280;63567;49.956;20.130;2022-11-20T05:38:36;96675.38;;;-4.01;81.50
75013;BME280;63567;49.956;20.130;2022-11-20T05:41:11;96670.28;;;-3.89;81.41
75013;BME280;63567;49.956;20.130;2022-11-20T05:43:38;96674.72;;;-3.92;80.96
75013;BME280;63567;49.956;20.130;2022-11-20T05:46:04;96670.66;;;-3.83;81.20
75013;BME280;63567;49.956;20.130;2022-11-20T05:48:31;96668.31;;;-3.86;81.05
75013;BME280;63567;49.956;20.130;2022-11-20T05:50:58;96666.44;;;-3.84;80.38
75013;BME280;63567;49.956;20.130;2022-11-20T05:53:25;96665.44;;;-3.81;80.98
75013;BME280;63567;49.956;20.130;2022-11-20T05:56:07;96671.47;;;-3.82;80.89
75013;BME280;63567;49.956;20.130;2022-11-20T05:58:35;96668.13;;;-3.96;80.41
75013;BME280;63567;49.956;20.130;2022-11-20T06:01:13;96670.78;;;-3.84;80.67
75013;BME280;63567;49.956;20.130;2022-11-20T06:03:39;96667.00;;;-3.92;80.45
75013;BME280;63567;49.956;20.130;2022-11-20T06:06:06;96673.06;;;-3.93;80.38
75013;BME280;63567;49.956;20.130;2022-11-20T06:08:32;96672.63;;;-3.86;80.00
75013;BME280;63567;49.956;20.130;2022-11-20T06:10:57;96676.03;;;-3.86;80.17
75013;BME280;63567;49.956;20.130;2022-11-20T06:13:23;96670.28;;;-3.89;80.14
75013;BME280;63567;49.956;20.130;2022-11-20T06:15:53;96669.56;;;-3.92;80.43
75013;BME280;63567;49.956;20.130;2022-11-20T06:18:19;96671.66;;;-3.97;80.09
75013;BME280;63567;49.956;20.130;2022-11-20T06:20:45;96670.38;;;-3.91;80.63
75013;BME280;63567;49.956;20.130;2022-11-20T06:23:10;96671.81;;;-3.87;80.24
75013;BME280;63567;49.956;20.130;2022-11-20T06:25:40;96664.47;;;-3.80;80.02
75013;BME280;63567;49.956;20.130;2022-11-20T06:28:05;96671.53;;;-3.71;79.32
75013;BME280;63567;49.956;20.130;2022-11-20T06:30:30;96667.88;;;-3.80;79.62
75013;BME280;63567;49.956;20.130;2022-11-20T06:32:55;96665.84;;;-3.87;79.86
75013;BME280;63567;49.956;20.130;2022-11-20T06:35:21;96656.88;;;-3.82;80.20
75013;BME280;63567;49.956;20.130;2022-11-20T06:37:46;96654.84;;;-3.65;79.61
75013;BME280;63567;49.956;20.130;2022-11-20T06:40:11;96651.03;;;-3.60;79.03
75013;BME280;63567;49.956;20.130;2022-11-20T06:42:37;96650.69;;;-3.55;78.94
75013;BME280;63567;49.956;20.130;2022-11-20T06:45:02;96652.22;;;-3.53;78.44
75013;BME280;63567;49.956;20.130;2022-11-20T06:47:28;96655.63;;;-3.52;78.43
75013;BME280;63567;49.956;20.130;2022-11-20T06:49:53;96653.75;;;-3.50;78.61
75013;BME280;63567;49.956;20.130;2022-11-20T06:52:18;96658.81;;;-3.48;78.15
75013;BME280;63567;49.956;20.130;2022-11-20T06:54:44;96654.38;;;-3.46;78.00
75013;BME280;63567;49.956;20.130;2022-11-20T06:57:09;96652.66;;;-3.59;78.38
75013;BME280;63567;49.956;20.130;2022-11-20T06:59:34;96650.56;;;-3.54;79.23
75013;BME280;63567;49.956;20.130;2022-11-20T07:01:59;96648.44;;;-3.36;78.92
75013;BME280;63567;49.956;20.130;2022-11-20T07:04:25;96654.00;;;-3.18;78.52
75013;BME280;63567;49.956;20.130;2022-11-20T07:06:50;96657.63;;;-3.20;78.72
75013;BME280;63567;49.956;20.130;2022-11-20T07:09:15;96653.44;;;-3.10;78.39
75013;BME280;63567;49.956;20.130;2022-11-20T07:11:41;96651.31;;;-3.16;78.33
75013;BME280;63567;49.956;20.130;2022-11-20T07:14:06;96660.81;;;-3.05;78.11
75013;BME280;63567;49.956;20.130;2022-11-20T07:16:31;96652.63;;;-2.99;78.09
75013;BME280;63567;49.956;20.130;2022-11-20T07:18:57;96651.00;;;-2.89;78.14
75013;BME280;63567;49.956;20.130;2022-11-20T07:21:22;96653.13;;;-2.83;77.69
75013;BME280;63567;49.956;20.130;2022-11-20T07:23:47;96653.84;;;-2.81;77.59
75013;BME280;63567;49.956;20.130;2022-11-20T07:26:12;96651.63;;;-2.74;77.66
75013;BME280;63567;49.956;20.130;2022-11-20T07:28:38;96655.50;;;-2.69;77.43
75013;BME280;63567;49.956;20.130;2022-11-20T07:31:03;96668.25;;;-2.78;77.73
75013;BME280;63567;49.956;20.130;2022-11-20T07:33:30;96664.84;;;-2.79;77.86
75013;BME280;63567;49.956;20.130;2022-11-20T07:35:55;96666.25;;;-2.86;77.92
75013;BME280;63567;49.956;20.130;2022-11-20T07:38:20;96667.09;;;-2.74;77.63
75013;BME280;63567;49.956;20.130;2022-11-20T07:40:46;96674.72;;;-2.61;77.32
75013;BME280;63567;49.956;20.130;2022-11-20T07:43:11;96677.06;;;-2.70;77.25
75013;BME280;63567;49.956;20.130;2022-11-20T07:45:36;96686.56;;;-2.70;77.56
75013;BME280;63567;49.956;20.130;2022-11-20T07:48:02;96680.94;;;-2.75;78.10
75013;BME280;63567;49.956;20.130;2022-11-20T07:50:27;96692.66;;;-2.60;77.79
75013;BME280;63567;49.956;20.130;2022-11-20T07:53:00;96689.94;;;-2.70;77.66
75013;BME280;63567;49.956;20.130;2022-11-20T07:55:25;96692.78;;;-2.61;77.33
75013;BME280;63567;49.956;20.130;2022-11-20T07:57:55;96691.38;;;-2.43;77.27
75013;BME280;63567;49.956;20.130;2022-11-20T08:00:21;96692.59;;;-2.82;77.39
75013;BME280;63567;49.956;20.130;2022-11-20T08:02:46;96688.03;;;-2.90;77.99
75013;BME280;63567;49.956;20.130;2022-11-20T08:05:11;96682.63;;;-2.87;77.88
75013;BME280;63567;49.956;20.130;2022-11-20T08:07:41;96680.56;;;-2.82;77.76
75013;BME280;63567;49.956;20.130;2022-11-20T08:10:09;96678.22;;;-2.74;77.48
75013;BME280;63567;49.956;20.130;2022-11-20T08:12:35;96670.38;;;-2.61;77.69
75013;BME280;63567;49.956;20.130;2022-11-20T08:15:19;96669.22;;;-2.68;77.87
75013;BME280;63567;49.956;20.130;2022-11-20T08:17:44;96666.19;;;-2.62;77.82
75013;BME280;63567;49.956;20.130;2022-11-20T08:20:10;96662.09;;;-2.53;77.44
75013;BME280;63567;49.956;20.130;2022-11-20T08:22:35;96666.88;;;-2.37;77.45
75013;BME280;63567;49.956;20.130;2022-11-20T08:25:00;96664.88;;;-2.11;77.76
75013;BME280;63567;49.956;20.130;2022-11-20T08:27:26;96671.78;;;-1.89;77.26
75013;BME280;63567;49.956;20.130;2022-11-20T08:29:51;96668.00;;;-1.74;77.01
75013;BME280;63567;49.956;20.130;2022-11-20T08:32:16;96658.00;;;-1.67;76.82
75013;BME280;63567;49.956;20.130;2022-11-20T08:34:42;96671.47;;;-1.52;76.73
75013;BME280;63567;49.956;20.130;2022-11-20T08:37:07;96662.53;;;-1.48;76.19
75013;BME280;63567;49.956;20.130;2022-11-20T08:39:32;96664.50;;;-1.40;76.49
75013;BME280;63567;49.956;20.130;2022-11-20T08:41:57;96661.78;;;-1.39;75.60
75013;BME280;63567;49.956;20.130;2022-11-20T08:44:23;96661.19;;;-1.31;76.35
75013;BME280;63567;49.956;20.130;2022-11-20T08:46:48;96659.56;;;-1.32;75.45
75013;BME280;63567;49.956;20.130;2022-11-20T08:49:14;96648.38;;;-1.33;74.98
75013;BME280;63567;49.956;20.130;2022-11-20T08:51:40;96651.16;;;-1.25;75.45
75013;BME280;63567;49.956;20.130;2022-11-20T08:54:06;96653.31;;;-1.30;75.48
75013;BME280;63567;49.956;20.130;2022-11-20T08:56:31;96650.63;;;-1.39;75.07
75013;BME280;63567;49.956;20.130;2022-11-20T08:58:57;96644.00;;;-1.53;75.75
75013;BME280;63567;49.956;20.130;2022-11-20T09:01:24;96653.47;;;-1.42;76.04
75013;BME280;63567;49.956;20.130;2022-11-20T09:03:49;96648.91;;;-1.50;75.79
75013;BME280;63567;49.956;20.130;2022-11-20T09:06:15;96651.38;;;-1.49;75.52
75013;BME280;63567;49.956;20.130;2022-11-20T09:08:41;96640.06;;;-1.36;75.30
75013;BME280;63567;49.956;20.130;2022-11-20T09:11:06;96643.41;;;-1.25;75.17
75013;BME280;63567;49.956;20.130;2022-11-20T09:13:33;96648.34;;;-1.00;75.15
75013;BME280;63567;49.956;20.130;2022-11-20T09:16:05;96645.34;;;-0.85;74.33
75013;BME280;63567;49.956;20.130;2022-11-20T09:18:35;96649.94;;;-0.88;74.35
75013;BME280;63567;49.956;20.130;2022-11-20T09:21:06;96651.94;;;-0.92;73.65
75013;BME280;63567;49.956;20.130;2022-11-20T09:23:33;96652.81;;;-1.02;74.30
75013;BME280;63567;49.956;20.130;2022-11-20T09:26:08;96644.88;;;-1.32;74.41
75013;BME280;63567;49.956;20.130;2022-11-20T09:28:34;96635.03;;;-1.38;74.97
75013;BME280;63567;49.956;20.130;2022-11-20T09:30:59;96639.78;;;-1.01;74.88
75013;BME280;63567;49.956;20.130;2022-11-20T09:33:25;96641.47;;;-0.90;73.63
75013;BME280;63567;49.956;20.130;2022-11-20T09:35:50;96633.94;;;-0.72;73.92
75013;BME280;63567;49.956;20.130;2022-11-20T09:38:15;96635.03;;;-0.75;73.12
75013;BME280;63567;49.956;20.130;2022-11-20T09:40:47;96629.66;;;-0.62;73.76
75013;BME280;63567;49.956;20.130;2022-11-20T09:56:12;96636.84;;;-0.04;71.79
75013;BME280;63567;49.956;20.130;2022-11-20T09:58:44;96649.41;;;0.10;71.69
75013;BME280;63567;49.956;20.130;2022-11-20T10:01:15;96644.09;;;0.22;72.19
75013;BME280;63567;49.956;20.130;2022-11-20T10:03:50;96642.34;;;0.32;71.71
75013;BME280;63567;49.956;20.130;2022-11-20T10:06:18;96638.69;;;0.34;70.89
75013;BME280;63567;49.956;20.130;2022-11-20T10:12:01;96652.47;;;0.45;72.01
75013;BME280;63567;49.956;20.130;2022-11-20T10:17:34;96656.97;;;0.33;71.17
75013;BME280;63567;49.956;20.130;2022-11-20T10:23:15;96650.81;;;0.24;70.72
75013;BME280;63567;49.956;20.130;2022-11-20T10:31:30;96655.34;;;0.51;70.26
75013;BME280;63567;49.956;20.130;2022-11-20T10:34:00;96645.38;;;0.56;70.06
75013;BME280;63567;49.956;20.130;2022-11-20T10:36:32;96645.25;;;0.58;69.41
75013;BME280;63567;49.956;20.130;2022-11-20T10:39:05;96639.81;;;0.61;68.49
75013;BME280;63567;49.956;20.130;2022-11-20T10:41:37;96637.06;;;0.63;69.66
75013;BME280;63567;49.956;20.130;2022-11-20T10:44:12;96641.84;;;0.67;69.41
75013;BME280;63567;49.956;20.130;2022-11-20T10:46:43;96634.63;;;0.61;69.14
75013;BME280;63567;49.956;20.130;2022-11-20T10:49:14;96629.72;;;0.68;68.57
75013;BME280;63567;49.956;20.130;2022-11-20T10:51:52;96632.16;;;0.79;68.55
75013;BME280;63567;49.956;20.130;2022-11-20T10:54:33;96627.38;;;0.84;69.41
75013;BME280;63567;49.956;20.130;2022-11-20T10:57:17;96617.69;;;0.86;68.25
75013;BME280;63567;49.956;20.130;2022-11-20T11:02:24;96607.06;;;0.89;68.58
75013;BME280;63567;49.956;20.130;2022-11-20T11:04:55;96606.47;;;0.95;69.55
75013;BME280;63567;49.956;20.130;2022-11-20T11:07:23;96607.31;;;0.86;69.47
75013;BME280;63567;49.956;20.130;2022-11-20T11:09:53;96597.38;;;0.72;69.39
75013;BME280;63567;49.956;20.130;2022-11-20T11:12:20;96596.72;;;0.70;70.04
75013;BME280;63567;49.956;20.130;2022-11-20T11:14:52;96594.13;;;0.70;70.90
75013;BME280;63567;49.956;20.130;2022-11-20T11:17:31;96596.28;;;0.55;70.87
75013;BME280;63567;49.956;20.130;2022-11-20T11:19:59;96594.38;;;0.47;72.10
75013;BME280;63567;49.956;20.130;2022-11-20T11:22:24;96603.25;;;0.45;72.43
75013;BME280;63567;49.956;20.130;2022-11-20T11:24:53;96604.19;;;0.34;72.65
75013;BME280;63567;49.956;20.130;2022-11-20T11:27:18;96588.47;;;0.06;73.87
75013;BME280;63567;49.956;20.130;2022-11-20T11:29:45;96586.28;;;0.02;74.12
75013;BME280;63567;49.956;20.130;2022-11-20T11:32:17;96585.03;;;-0.14;74.70
75013;BME280;63567;49.956;20.130;2022-11-20T11:34:43;96566.91;;;-0.14;74.48
75013;BME280;63567;49.956;20.130;2022-11-20T11:37:19;96566.69;;;0.18;74.33
75013;BME280;63567;49.956;20.130;2022-11-20T11:39:47;96578.00;;;0.27;73.76
75013;BME280;63567;49.956;20.130;2022-11-20T11:42:17;96574.06;;;0.43;73.39
75013;BME280;63567;49.956;20.130;2022-11-20T11:44:45;96562.59;;;0.45;73.42
75013;BME280;63567;49.956;20.130;2022-11-20T11:47:35;96563.28;;;0.57;73.11
75013;BME280;63567;49.956;20.130;2022-11-20T11:50:15;96557.41;;;0.65;73.43
75013;BME280;63567;49.956;20.130;2022-11-20T11:55:32;96548.66;;;0.75;72.24
75013;BME280;63567;49.956;20.130;2022-11-20T12:00:58;96544.56;;;0.73;72.58
75013;BME280;63567;49.956;20.130;2022-11-20T12:03:39;96536.50;;;0.76;71.54
75013;BME280;63567;49.956;20.130;2022-11-20T12:06:13;96540.59;;;0.88;71.34
75013;BME280;63567;49.956;20.130;2022-11-20T12:08:55;96534.31;;;0.91;71.36
75013;BME280;63567;49.956;20.130;2022-11-20T12:11:36;96536.13;;;0.80;70.56
75013;BME280;63567;49.956;20.130;2022-11-20T12:14:18;96537.81;;;0.99;71.96
75013;BME280;63567;49.956;20.130;2022-11-20T12:16:49;96550.00;;;0.89;71.64
75013;BME280;63567;49.956;20.130;2022-11-20T12:19:15;96546.34;;;0.63;71.36
75013;BME280;63567;49.956;20.130;2022-11-20T12:29:52;96543.66;;;0.54;72.73
75013;BME280;63567;49.956;20.130;2022-11-20T12:35:35;96547.34;;;0.23;73.66
75013;BME280;63567;49.956;20.130;2022-11-20T12:41:15;96546.34;;;-0.06;74.10
75013;BME280;63567;49.956;20.130;2022-11-20T12:47:43;96544.47;;;0.16;72.55
75013;BME280;63567;49.956;20.130;2022-11-20T12:50:30;96552.78;;;0.19;73.18
75013;BME280;63567;49.956;20.130;2022-11-20T12:53:23;96543.50;;;0.36;73.14
75013;BME280;63567;49.956;20.130;2022-11-20T13:01:32;96546.63;;;0.50;71.89
75013;BME280;63567;49.956;20.130;2022-11-20T13:04:39;96547.88;;;0.36;71.71
75013;BME280;63567;49.956;20.130;2022-11-20T13:07:13;96540.66;;;0.39;72.49
75013;BME280;63567;49.956;20.130;2022-11-20T13:09:44;96536.66;;;0.65;71.86
75013;BME280;63567;49.956;20.130;2022-11-20T13:12:17;96535.44;;;0.78;71.14
75013;BME280;63567;49.956;20.130;2022-11-20T13:14:46;96534.72;;;0.86;70.95
75013;BME280;63567;49.956;20.130;2022-11-20T13:19:52;96515.63;;;0.87;71.76
75013;BME280;63567;49.956;20.130;2022-11-20T13:22:27;96516.81;;;0.93;72.80
75013;BME280;63567;49.956;20.130;2022-11-20T13:24:53;96505.22;;;0.97;73.92
75013;BME280;63567;49.956;20.130;2022-11-20T13:27:22;96502.00;;;1.50;72.82
75013;BME280;63567;49.956;20.130;2022-11-20T13:30:12;96504.75;;;2.74;69.19
75013;BME280;63567;49.956;20.130;2022-11-20T13:32:52;96496.31;;;3.41;65.46
75013;BME280;63567;49.956;20.130;2022-11-20T13:40:25;96495.94;;;2.49;66.20
75013;BME280;63567;49.956;20.130;2022-11-20T13:45:30;96479.84;;;2.28;67.40
75013;BME280;63567;49.956;20.130;2022-11-20T13:48:00;96477.84;;;2.39;66.47
75013;BME280;63567;49.956;20.130;2022-11-20T13:53:31;96482.34;;;2.55;66.55
75013;BME280;63567;49.956;20.130;2022-11-20T13:56:25;96472.56;;;2.75;66.13
75013;BME280;63567;49.956;20.130;2022-11-20T14:01:36;96476.66;;;2.34;65.48
75013;BME280;63567;49.956;20.130;2022-11-20T14:04:08;96481.41;;;2.38;66.10
75013;BME280;63567;49.956;20.130;2022-11-20T14:06:41;96480.59;;;2.38;66.33
75013;BME280;63567;49.956;20.130;2022-11-20T14:09:13;96476.78;;;2.06;66.85
75013;BME280;63567;49.956;20.130;2022-11-20T14:11:46;96486.25;;;1.79;66.68
75013;BME280;63567;49.956;20.130;2022-11-20T14:14:19;96481.94;;;1.70;67.83
75013;BME280;63567;49.956;20.130;2022-11-20T14:16:46;96485.53;;;1.41;68.08
75013;BME280;63567;49.956;20.130;2022-11-20T14:24:12;96490.56;;;0.58;72.19
75013;BME280;63567;49.956;20.130;2022-11-20T14:26:45;96481.50;;;0.25;73.98
75013;BME280;63567;49.956;20.130;2022-11-20T14:29:17;96482.59;;;0.03;74.46